Time;durP1;ratioP1;P1;durP2;ratioP2;P2;SDS_P1;SDS_P2;PMS_P1;PMS_P2;Temp;Humidity;BMP_temperature;BMP_pressure;BME280_temperature;BME280_humidity;BME280_pressure;Samples;Min_cycle;Max_cycle;Signal;HPM_P1;HPM_P2
2023/03/05 00:00:44;;;;;;;;;47.25;39.25;;;;;8.66;95.17;101899.22;5077775;28;45445;-76
2023/03/05 00:03:10;;;;;;;;;39.50;36.75;;;;;8.64;95.52;101898.50;5077810;28;45472;-76
2023/03/05 00:05:35;;;;;;;;;40.50;36.25;;;;;8.55;95.02;101881.59;5078956;28;45308;-76
2023/03/05 00:08:01;;;;;;;;;43.75;37.75;;;;;8.65;95.86;101897.53;5077411;27;45416;-76
2023/03/05 00:10:26;;;;;;;;;43.75;36.50;;;;;8.64;96.28;101909.09;5079310;27;45392;-76
2023/03/05 00:12:51;;;;;;;;;47.75;40.00;;;;;8.57;96.53;101892.91;5079196;27;45355;-76
2023/03/05 00:15:17;;;;;;;;;36.75;35.25;;;;;8.64;96.29;101908.25;5077412;28;46196;-76
2023/03/05 00:17:42;;;;;;;;;38.25;36.00;;;;;8.61;95.86;101904.06;5078627;27;46222;-76
2023/03/05 00:20:08;;;;;;;;;39.25;35.75;;;;;8.62;96.66;101908.38;5080236;27;45263;-76
2023/03/05 00:22:35;;;;;;;;;39.75;36.00;;;;;8.58;97.02;101893.72;5082699;27;45274;-77
2023/03/05 00:25:00;;;;;;;;;40.75;36.25;;;;;8.53;96.33;101893.28;5082962;27;45428;-76
2023/03/05 00:27:26;;;;;;;;;34.75;34.25;;;;;8.51;96.74;101888.09;5082022;27;46207;-76
2023/03/05 00:29:51;;;;;;;;;38.25;33.75;;;;;8.55;97.96;101904.59;5082353;27;45335;-75
2023/03/05 00:32:16;;;;;;;;;38.50;35.25;;;;;8.46;97.64;101885.84;5082197;28;48687;-77
2023/03/05 00:34:42;;;;;;;;;30.75;28.50;;;;;8.59;97.58;101890.09;5081250;28;47977;-76
2023/03/05 00:37:07;;;;;;;;;37.75;34.00;;;;;8.46;96.73;101877.03;5082004;27;46267;-76
2023/03/05 00:39:32;;;;;;;;;33.75;32.00;;;;;8.43;97.62;101885.25;5080744;28;54070;-76
2023/03/05 00:41:58;;;;;;;;;34.25;34.00;;;;;8.55;97.53;101896.63;5081147;28;45313;-76
2023/03/05 00:44:24;;;;;;;;;35.50;34.50;;;;;8.43;97.66;101872.00;5082379;27;45468;-77
2023/03/05 00:46:49;;;;;;;;;29.75;29.75;;;;;8.52;97.64;101895.06;5082064;28;45373;-76
2023/03/05 00:49:15;;;;;;;;;31.00;28.25;;;;;8.55;98.30;101896.63;5081112;28;46281;-76
2023/03/05 00:51:40;;;;;;;;;36.00;32.25;;;;;8.47;98.15;101891.97;5082126;27;45834;-76
2023/03/05 00:54:06;;;;;;;;;37.50;31.50;;;;;8.53;97.98;101894.09;5082017;28;45240;-76
2023/03/05 00:56:31;;;;;;;;;36.75;33.00;;;;;8.45;98.03;101880.69;5080733;28;47104;-76
2023/03/05 00:58:57;;;;;;;;;34.75;31.50;;;;;8.40;98.58;101873.13;5082182;27;45419;-75
2023/03/05 01:01:23;;;;;;;;;37.50;34.50;;;;;8.48;98.65;101879.56;5080502;28;45332;-75
2023/03/05 01:03:48;;;;;;;;;32.50;29.50;;;;;8.39;98.79;101866.16;5082105;27;46184;-76
2023/03/05 01:06:15;;;;;;;;;32.25;31.00;;;;;8.41;98.76;101863.38;5081420;27;45353;-76
2023/03/05 01:08:42;;;;;;;;;30.25;27.00;;;;;8.45;98.78;101883.31;5082051;27;45370;-76
2023/03/05 01:11:09;;;;;;;;;36.25;32.25;;;;;8.34;98.40;101849.81;5081912;27;45507;-76
2023/03/05 01:13:38;;;;;;;;;38.00;34.50;;;;;8.42;98.83;101875.63;5080536;28;45449;-77
2023/03/05 01:16:04;;;;;;;;;32.50;31.50;;;;;8.43;99.66;101861.41;5081009;27;45274;-76
2023/03/05 01:18:29;;;;;;;;;39.00;34.00;;;;;8.44;99.85;101860.47;5080623;28;45304;-76
2023/03/05 01:20:55;;;;;;;;;32.75;29.25;;;;;8.47;99.06;101870.75;5081559;28;45165;-76
2023/03/05 01:23:20;;;;;;;;;34.00;31.00;;;;;8.43;99.88;101864.91;5080298;28;46063;-76
2023/03/05 01:25:52;;;;;;;;;36.25;33.75;;;;;8.41;99.87;101863.38;5081426;27;45664;-76
2023/03/05 01:28:17;;;;;;;;;30.50;29.25;;;;;8.47;99.99;101865.47;5080382;28;45465;-76
2023/03/05 01:30:42;;;;;;;;;34.25;33.50;;;;;8.49;100.00;101865.34;5064360;27;45314;-76
2023/03/05 01:33:08;;;;;;;;;26.75;26.75;;;;;8.43;100.00;101846.38;5071057;28;52486;-76
2023/03/05 01:35:33;;;;;;;;;30.25;29.50;;;;;8.46;100.00;101853.19;5079665;28;47215;-76
2023/03/05 01:37:58;;;;;;;;;38.75;34.00;;;;;8.43;100.00;101851.66;5080390;28;46258;-76
2023/03/05 01:40:27;;;;;;;;;29.00;28.00;;;;;8.47;100.00;101852.22;5081627;27;45244;-76
2023/03/05 01:43:14;;;;;;;;;35.00;32.00;;;;;8.38;100.00;101830.00;5080262;28;46042;-76
2023/03/05 01:46:17;;;;;;;;;31.50;29.50;;;;;8.51;100.00;101839.56;5081141;27;45405;-76
2023/03/05 01:48:50;;;;;;;;;32.75;29.75;;;;;8.53;100.00;101834.97;5081310;27;45326;-76
2023/03/05 01:51:19;;;;;;;;;34.50;31.25;;;;;8.44;100.00;101826.84;5081267;27;45398;-77
2023/03/05 01:53:45;;;;;;;;;34.75;33.50;;;;;8.49;100.00;101826.44;5079863;28;46112;-76
2023/03/05 01:56:10;;;;;;;;;34.75;32.00;;;;;8.41;100.00;101813.84;5081125;27;45317;-76
2023/03/05 01:58:38;;;;;;;;;31.00;28.00;;;;;8.53;100.00;101821.72;5081348;27;45361;-76
2023/03/05 02:01:04;;;;;;;;;29.75;28.50;;;;;8.45;100.00;101811.78;5080771;27;45305;-75
2023/03/05 02:03:30;;;;;;;;;35.50;33.50;;;;;8.44;100.00;101808.28;5079563;28;46113;-76
2023/03/05 02:05:56;;;;;;;;;32.00;26.75;;;;;8.45;100.00;101809.13;5081013;27;46444;-75
2023/03/05 02:08:21;;;;;;;;;31.00;28.00;;;;;8.52;100.00;101812.06;5079716;28;45365;-77
2023/03/05 02:10:50;;;;;;;;;29.75;28.00;;;;;8.47;100.00;101796.56;5079773;28;45393;-76
2023/03/05 02:13:22;;;;;;;;;33.00;29.75;;;;;8.46;100.00;101798.41;5080919;27;45492;-76
2023/03/05 02:15:48;;;;;;;;;27.25;26.00;;;;;8.46;100.00;101801.06;5080601;28;45914;-76
2023/03/05 02:18:15;;;;;;;;;27.25;26.75;;;;;8.45;100.00;101798.53;5062466;28;45458;-76
2023/03/05 02:20:50;;;;;;;;;30.50;27.75;;;;;8.42;100.00;101796.16;5077497;28;45291;-76
2023/03/05 02:23:18;;;;;;;;;27.50;26.50;;;;;8.52;100.00;101804.13;5080675;27;45185;-76
2023/03/05 02:25:44;;;;;;;;;25.00;22.75;;;;;8.54;100.00;101797.78;5080075;27;46345;-76
2023/03/05 02:28:16;;;;;;;;;25.75;23.50;;;;;8.49;100.00;101788.50;5080738;27;45290;-76
2023/03/05 02:30:42;;;;;;;;;22.00;22.00;;;;;8.47;100.00;101778.03;5073535;27;45248;-76
2023/03/05 02:33:07;;;;;;;;;23.00;21.75;;;;;8.59;100.00;101795.53;5059146;28;46365;-76
2023/03/05 02:35:33;;;;;;;;;25.25;22.00;;;;;8.57;100.00;101780.75;5077695;28;45416;-75
2023/03/05 02:37:58;;;;;;;;;25.67;20.33;;;;;8.65;100.00;101785.38;5080532;28;45302;-76
2023/03/05 02:40:24;;;;;;;;;22.50;22.25;;;;;8.66;100.00;101787.06;5080725;27;45306;-76
2023/03/05 02:42:49;;;;;;;;;19.75;19.25;;;;;8.61;100.00;101770.72;5078280;28;46119;-76
2023/03/05 02:45:15;;;;;;;;;22.00;22.00;;;;;8.63;100.00;101772.28;5080069;28;45357;-76
2023/03/05 02:47:41;;;;;;;;;24.00;22.00;;;;;8.68;100.00;101780.63;5078953;28;45545;-76
2023/03/05 02:50:09;;;;;;;;;24.00;22.50;;;;;8.69;100.00;101773.53;5078972;28;45343;-76
2023/03/05 02:52:34;;;;;;;;;24.50;23.00;;;;;8.58;100.00;101758.56;5080397;27;45469;-75
2023/03/05 02:54:59;;;;;;;;;23.50;21.00;;;;;8.56;100.00;101744.66;5078272;28;46968;-76
2023/03/05 02:57:25;;;;;;;;;19.67;17.67;;;;;8.69;100.00;101761.13;5080552;28;45404;-76
2023/03/05 02:59:50;;;;;;;;;24.00;22.67;;;;;8.68;100.00;101758.63;5078671;28;45420;-76
2023/03/05 03:02:16;;;;;;;;;18.67;18.00;;;;;8.67;100.00;101762.22;5080024;27;45444;-76
2023/03/05 03:04:43;;;;;;;;;20.67;18.67;;;;;8.59;100.00;101742.53;5079829;28;45409;-76
2023/03/05 03:07:10;;;;;;;;;20.50;18.50;;;;;8.64;100.00;101754.53;5078361;28;45462;-77
2023/03/05 03:09:38;;;;;;;;;11.50;11.50;;;;;8.60;100.00;101746.03;5080052;27;45354;-76
2023/03/05 03:12:05;;;;;;;;;24.25;20.75;;;;;8.57;100.00;101736.56;5080107;27;45456;-76
2023/03/05 03:14:39;;;;;;;;;20.00;18.33;;;;;8.61;100.00;101744.22;5078464;28;47318;-77
2023/03/05 03:17:07;;;;;;;;;18.67;18.00;;;;;8.63;100.00;101747.56;5078333;28;45476;-76
2023/03/05 03:19:32;;;;;;;;;24.25;21.25;;;;;8.55;100.00;101733.19;5078488;28;45470;-76
2023/03/05 03:21:57;;;;;;;;;21.00;19.67;;;;;8.51;100.00;101723.81;5080268;27;45161;-76
2023/03/05 03:24:23;;;;;;;;;16.00;15.25;;;;;8.63;100.00;101736.97;5079026;28;46032;-76
2023/03/05 03:26:48;;;;;;;;;22.75;21.75;;;;;8.61;100.00;101737.09;5080495;27;45259;-76
2023/03/05 03:29:15;;;;;;;;;22.25;21.25;;;;;8.63;100.00;101732.53;5080590;28;45187;-76
2023/03/05 03:31:40;;;;;;;;;26.00;21.33;;;;;8.56;100.00;101720.78;5079798;28;45284;-76
2023/03/05 03:34:06;;;;;;;;;22.00;20.33;;;;;8.36;100.00;101691.56;5080434;27;45646;-76
2023/03/05 03:36:33;;;;;;;;;27.00;22.00;;;;;8.56;100.00;101723.44;5080332;27;45445;-76
2023/03/05 03:38:59;;;;;;;;;21.00;20.25;;;;;8.53;100.00;101721.03;5078852;27;45445;-76
2023/03/05 03:41:24;;;;;;;;;24.75;21.75;;;;;8.51;100.00;101709.72;5079561;27;45332;-76
2023/03/05 03:43:49;;;;;;;;;22.00;20.00;;;;;8.53;100.00;101715.72;5079503;28;47951;-76
2023/03/05 03:46:15;;;;;;;;;26.25;22.25;;;;;8.53;100.00;101716.56;5077671;28;45317;-76
2023/03/05 03:48:40;;;;;;;;;20.50;19.75;;;;;8.46;100.00;101696.88;5079778;27;45624;-76
2023/03/05 03:51:08;;;;;;;;;23.75;20.75;;;;;8.33;100.00;101670.66;5078213;28;46319;-76
2023/03/05 03:53:34;;;;;;;;;20.00;20.00;;;;;8.44;100.00;101691.72;5077918;28;52119;-76
2023/03/05 03:55:59;;;;;;;;;26.50;25.75;;;;;8.51;100.00;101693.81;5077034;28;45975;-76
2023/03/05 03:58:25;;;;;;;;;19.33;18.67;;;;;8.59;100.00;101701.94;5066376;28;45338;-76
2023/03/05 04:00:50;;;;;;;;;20.33;17.33;;;;;8.50;100.00;101689.50;5079351;27;45268;-76
2023/03/05 04:03:15;;;;;;;;;5.00;2.00;;;;;8.52;100.00;101696.34;5066351;27;45334;-76
2023/03/05 04:05:41;;;;;;;;;21.50;21.25;;;;;8.44;100.00;101678.47;5079423;27;45475;-76
2023/03/05 04:08:10;;;;;;;;;24.00;21.25;;;;;8.56;100.00;101694.28;5079714;27;45371;-76
2023/03/05 04:10:37;;;;;;;;;23.75;20.25;;;;;8.54;100.00;101685.63;5078247;28;47433;-76
2023/03/05 04:13:02;;;;;;;;;23.00;22.50;;;;;8.54;100.00;101675.03;5078360;27;45234;-76
2023/03/05 04:15:27;;;;;;;;;18.50;18.00;;;;;8.56;100.00;101686.34;5079042;28;45266;-76
2023/03/05 04:17:52;;;;;;;;;25.00;22.75;;;;;8.48;100.00;101681.69;5079152;28;45206;-76
2023/03/05 04:20:18;;;;;;;;;25.00;21.00;;;;;8.14;100.00;101627.25;5079190;27;45254;-76
2023/03/05 04:22:43;;;;;;;;;24.00;23.00;;;;;8.40;100.00;101671.78;5078877;27;46367;-76
2023/03/05 04:25:09;;;;;;;;;26.25;24.75;;;;;8.50;100.00;101690.31;5092218;27;45218;-75
2023/03/05 04:27:36;;;;;;;;;24.25;24.25;;;;;8.42;100.00;101667.19;5094829;27;45371;-76
2023/03/05 04:30:02;;;;;;;;;25.00;23.00;;;;;8.54;100.00;101693.59;5078830;27;45504;-77
2023/03/05 04:32:28;;;;;;;;;23.67;22.67;;;;;8.44;100.00;101675.00;5078528;27;46281;-76
2023/03/05 04:34:57;;;;;;;;;16.00;16.00;;;;;8.58;100.00;101684.38;5078898;27;45362;-76
2023/03/05 04:37:24;;;;;;;;;25.50;23.00;;;;;8.56;100.00;101681.06;5077730;28;45264;-76
2023/03/05 04:39:50;;;;;;;;;23.50;23.25;;;;;8.53;100.00;101671.50;5077684;28;45960;-76
2023/03/05 04:42:16;;;;;;;;;23.50;22.00;;;;;8.58;100.00;101677.28;5078943;27;45366;-76
2023/03/05 04:44:41;;;;;;;;;23.50;19.25;;;;;8.62;100.00;101679.66;5078728;28;45480;-76
2023/03/05 04:47:06;;;;;;;;;20.50;20.50;;;;;8.59;100.00;101678.09;5079030;27;45381;-77
2023/03/05 04:49:32;;;;;;;;;21.00;19.00;;;;;8.58;100.00;101673.78;5077590;28;46208;-76
2023/03/05 04:51:57;;;;;;;;;20.50;19.25;;;;;8.56;100.00;101679.22;5078424;27;46242;-75
2023/03/05 04:54:23;;;;;;;;;25.50;24.00;;;;;8.55;100.00;101674.91;5078972;27;46501;-76
2023/03/05 04:56:48;;;;;;;;;24.33;21.67;;;;;8.39;100.00;101651.56;5078692;27;45452;-76
2023/03/05 04:59:14;;;;;;;;;25.25;24.00;;;;;8.40;100.00;101657.69;5078626;27;45344;-76
2023/03/05 05:01:39;;;;;;;;;24.75;20.75;;;;;8.40;100.00;101649.75;5078602;28;45322;-76
2023/03/05 05:04:05;;;;;;;;;18.25;18.25;;;;;8.44;100.00;101651.16;5078965;28;45276;-76
2023/03/05 05:06:30;;;;;;;;;20.75;19.00;;;;;8.35;100.00;101639.56;5078840;27;45343;-76
2023/03/05 05:08:55;;;;;;;;;24.75;20.00;;;;;8.33;100.00;101634.38;5082133;27;45329;-76
2023/03/05 05:11:21;;;;;;;;;24.33;21.33;;;;;8.34;100.00;101637.88;5081745;28;48599;-76
2023/03/05 05:13:46;;;;;;;;;19.50;17.00;;;;;8.37;100.00;101642.91;5082056;28;49362;-76
2023/03/05 05:16:11;;;;;;;;;24.50;23.50;;;;;8.48;100.00;101655.19;5081786;28;45430;-76
2023/03/05 05:18:37;;;;;;;;;21.00;18.75;;;;;8.38;100.00;101631.31;5082254;27;45140;-77
2023/03/05 05:21:10;;;;;;;;;24.50;20.25;;;;;8.52;100.00;101647.78;5081593;27;45449;-76
2023/03/05 05:23:36;;;;;;;;;25.00;23.25;;;;;8.53;100.00;101647.66;5082097;28;45528;-76
2023/03/05 05:26:03;;;;;;;;;24.50;23.25;;;;;8.56;100.00;101641.31;5080538;28;45502;-76
2023/03/05 05:28:29;;;;;;;;;15.75;13.50;;;;;8.50;100.00;101632.03;5081878;27;45532;-76
2023/03/05 05:30:55;;;;;;;;;24.00;21.75;;;;;8.52;100.00;101626.59;5080204;28;45515;-75
2023/03/05 05:33:21;;;;;;;;;18.50;18.00;;;;;8.58;100.00;101634.88;5082075;27;45304;-76
2023/03/05 05:35:46;;;;;;;;;22.00;22.00;;;;;8.54;100.00;101630.00;5081965;27;45446;-76
2023/03/05 05:38:12;;;;;;;;;23.25;21.25;;;;;8.54;100.00;101622.88;5081678;27;45377;-76
2023/03/05 05:40:37;;;;;;;;;21.50;20.50;;;;;8.57;100.00;101627.06;5081623;27;45318;-77
2023/03/05 05:43:03;;;;;;;;;21.67;20.33;;;;;8.62;100.00;101626.66;5081414;27;45291;-76
2023/03/05 05:45:28;;;;;;;;;20.75;19.25;;;;;8.64;100.00;101629.97;5080008;28;45510;-76
2023/03/05 05:47:53;;;;;;;;;29.75;26.50;;;;;8.59;100.00;101622.44;5081380;27;45421;-77
2023/03/05 05:50:19;;;;;;;;;47.50;39.75;;;;;8.65;100.00;101631.69;5081077;27;50162;-77
2023/03/05 05:52:45;;;;;;;;;34.75;28.50;;;;;8.64;100.00;101625.53;5080393;28;46135;-76
2023/03/05 05:55:10;;;;;;;;;25.25;24.00;;;;;8.58;100.00;101618.13;5081252;27;45839;-76
2023/03/05 05:57:37;;;;;;;;;19.33;19.00;;;;;8.67;100.00;101625.25;5081622;27;45244;-76
2023/03/05 06:00:05;;;;;;;;;22.67;21.00;;;;;8.62;100.00;101613.41;5080701;27;45234;-76
2023/03/05 06:02:31;;;;;;;;;21.00;20.00;;;;;8.68;100.00;101618.16;5081427;27;45676;-76
2023/03/05 06:04:56;;;;;;;;;23.33;22.00;;;;;8.59;100.00;101607.41;5081193;28;45341;-77
2023/03/05 06:07:22;;;;;;;;;25.50;23.50;;;;;8.65;100.00;101613.94;5081037;28;45307;-76
2023/03/05 06:09:47;;;;;;;;;19.00;19.00;;;;;8.63;100.00;101609.78;5080727;27;53575;-76
2023/03/05 06:12:12;;;;;;;;;22.33;21.00;;;;;8.63;100.00;101609.78;5079896;27;45485;-76
2023/03/05 06:14:38;;;;;;;;;38.50;32.50;;;;;8.63;100.00;101613.25;5080765;27;45413;-76
2023/03/05 06:17:03;;;;;;;;;47.00;38.75;;;;;8.54;100.00;101599.03;5080526;28;45508;-76
2023/03/05 06:19:28;;;;;;;;;31.00;29.25;;;;;8.68;100.00;101613.66;5080440;28;45332;-76
2023/03/05 06:21:54;;;;;;;;;22.67;21.67;;;;;8.64;100.00;101612.28;5080573;28;49548;-76
2023/03/05 06:24:19;;;;;;;;;31.00;29.75;;;;;8.64;100.00;101611.44;5079531;28;45378;-76
2023/03/05 06:26:45;;;;;;;;;24.67;23.67;;;;;8.62;100.00;101611.56;5079569;28;45519;-77
2023/03/05 06:29:11;;;;;;;;;24.75;21.75;;;;;8.65;100.00;101621.88;5074565;27;46087;-76
2023/03/05 06:31:38;;;;;;;;;26.00;26.00;;;;;8.56;100.00;101617.44;5072696;28;45270;-76
2023/03/05 06:34:03;;;;;;;;;20.00;19.67;;;;;8.58;100.00;101618.13;5080932;27;45363;-76
2023/03/05 06:36:30;;;;;;;;;27.00;26.25;;;;;8.46;100.00;101610.31;5080638;27;45477;-77
2023/03/05 06:38:56;;;;;;;;;28.25;26.25;;;;;8.39;100.00;101601.25;5080676;28;45332;-76
2023/03/05 06:41:24;;;;;;;;;20.25;20.00;;;;;8.44;100.00;101614.06;5079488;28;45489;-76
2023/03/05 06:43:50;;;;;;;;;19.00;19.00;;;;;8.46;100.00;101620.91;5080421;28;45365;-76
2023/03/05 06:46:18;;;;;;;;;19.00;17.33;;;;;8.41;100.00;101609.03;5080340;28;45337;-76
2023/03/05 06:48:44;;;;;;;;;21.67;20.00;;;;;8.47;100.00;101613.75;5078111;28;46338;-76
2023/03/05 06:51:17;;;;;;;;;18.50;17.75;;;;;8.50;100.00;101621.44;5078299;28;46503;-76
2023/03/05 06:53:43;;;;;;;;;24.25;22.25;;;;;8.47;100.00;101611.13;5079719;28;45282;-76
2023/03/05 06:56:09;;;;;;;;;19.67;17.33;;;;;8.55;100.00;101621.91;5078554;27;46364;-76
2023/03/05 06:58:38;;;;;;;;;22.00;21.75;;;;;8.45;100.00;101608.59;5079788;27;46561;-76
2023/03/05 07:01:06;;;;;;;;;21.33;20.00;;;;;8.56;100.00;101614.81;5079532;27;45413;-76
2023/03/05 07:03:31;;;;;;;;;23.50;17.25;;;;;8.46;100.00;101605.00;5080061;27;45310;-77
2023/03/05 07:05:56;;;;;;;;;22.67;20.33;;;;;8.56;100.00;101618.28;5078205;27;45255;-77
2023/03/05 07:08:22;;;;;;;;;20.67;19.00;;;;;8.55;100.00;101608.66;5077991;28;52442;-77
2023/03/05 07:10:47;;;;;;;;;23.67;20.67;;;;;8.53;100.00;101604.44;5079887;27;45643;-75
2023/03/05 07:13:12;;;;;;;;;16.33;15.00;;;;;8.52;100.00;101597.47;5079918;27;45349;-76
2023/03/05 07:15:39;;;;;;;;;17.00;17.00;;;;;8.64;100.00;101611.44;5066651;27;46332;-76
2023/03/05 07:18:05;;;;;;;;;17.33;14.00;;;;;8.45;100.00;101584.75;5078892;28;47217;-77
2023/03/05 07:20:33;;;;;;;;;17.00;13.67;;;;;8.57;100.00;101598.75;5079917;27;45218;-77
2023/03/05 07:22:58;;;;;;;;;20.00;18.67;;;;;8.59;100.00;101596.78;5080240;27;45357;-77
2023/03/05 07:25:23;;;;;;;;;19.00;18.00;;;;;8.65;100.00;101599.88;5079963;28;45455;-76
2023/03/05 07:27:49;;;;;;;;;17.33;17.33;;;;;8.74;100.00;101608.78;5078534;28;51564;-76
2023/03/05 07:30:14;;;;;;;;;22.00;18.67;;;;;8.68;100.00;101592.47;5078974;27;45480;-76
2023/03/05 07:32:40;;;;;;;;;18.00;18.00;;;;;8.73;100.00;101583.25;5079796;27;45348;-76
2023/03/05 07:35:06;;;;;;;;;20.33;17.33;;;;;8.86;100.00;101609.47;5079576;28;45263;-77
2023/03/05 07:37:32;;;;;;;;;17.67;17.00;;;;;8.78;100.00;101596.94;5078579;28;48437;-76
2023/03/05 07:39:57;;;;;;;;;14.00;14.00;;;;;8.88;100.00;101613.66;5079569;27;45195;-77
2023/03/05 07:42:22;;;;;;;;;22.33;20.00;;;;;8.88;100.00;101603.06;5078596;28;45779;-77
2023/03/05 07:44:48;;;;;;;;;20.67;19.33;;;;;8.96;100.00;101607.66;5079450;27;45250;-78
2023/03/05 07:47:13;;;;;;;;;22.00;22.00;;;;;8.88;100.00;101602.19;5078077;27;47101;-78
2023/03/05 07:49:40;;;;;;;;;17.33;17.33;;;;;8.94;100.00;101607.78;5079643;27;45243;-78
2023/03/05 07:52:06;;;;;;;;;22.00;19.67;;;;;9.04;100.00;101622.84;5078533;27;45386;-79
2023/03/05 07:54:36;;;;;;;;;20.33;16.33;;;;;9.11;100.00;101618.66;5079101;27;45359;-77
2023/03/05 07:57:02;;;;;;;;;20.00;18.00;;;;;9.13;100.00;101613.19;5077410;28;47706;-76
2023/03/05 07:59:27;;;;;;;;;15.67;10.67;;;;;9.20;100.00;101623.09;5078871;27;45319;-75
2023/03/05 08:01:52;;;;;;;;;22.67;19.33;;;;;9.17;100.00;101611.94;5079522;28;45348;-75
2023/03/05 08:04:18;;;;;;;;;20.67;19.00;;;;;9.17;100.00;101606.63;5079044;28;45283;-75
2023/03/05 08:06:45;;;;;;;;;19.67;18.33;;;;;9.22;100.00;101613.16;5077656;28;52121;-75
2023/03/05 08:09:11;;;;;;;;;15.33;14.33;;;;;9.22;100.00;101604.41;5079068;27;45282;-74
2023/03/05 08:11:36;;;;;;;;;19.67;19.00;;;;;9.32;100.00;101618.47;5079417;27;45487;-76
2023/03/05 08:14:03;;;;;;;;;16.67;16.67;;;;;9.38;100.00;101618.84;5078635;27;45460;-75
2023/03/05 08:16:28;;;;;;;;;16.67;16.33;;;;;9.40;100.00;101615.06;5077956;28;47514;-76
2023/03/05 08:18:56;;;;;;;;;19.00;15.67;;;;;9.45;100.00;101611.97;5078806;27;45320;-75
2023/03/05 08:21:33;;;;;;;;;19.33;16.67;;;;;9.43;100.00;101593.53;5079248;27;45232;-75
2023/03/05 08:24:00;;;;;;;;;19.67;17.33;;;;;9.54;100.00;101597.84;5076892;28;46413;-74
2023/03/05 08:26:28;;;;;;;;;20.33;17.67;;;;;9.57;100.00;101602.00;5078861;27;45242;-74
2023/03/05 08:28:54;;;;;;;;;18.67;16.33;;;;;9.64;100.00;101612.91;5079025;27;45366;-73
2023/03/05 08:31:21;;;;;;;;;20.33;19.67;;;;;9.54;100.00;101589.88;5065090;27;45314;-74
2023/03/05 08:33:52;;;;;;;;;22.67;19.00;;;;;9.68;100.00;101601.00;5077524;28;46048;-75
2023/03/05 08:36:17;;;;;;;;;20.67;18.00;;;;;9.68;100.00;101596.53;5078807;27;45378;-76
2023/03/05 08:38:45;;;;;;;;;23.33;22.00;;;;;9.60;100.00;101591.94;5078902;28;45329;-75
2023/03/05 08:41:11;;;;;;;;;24.67;22.00;;;;;9.66;100.00;101595.84;5080450;27;45668;-74
2023/03/05 08:43:37;;;;;;;;;24.33;22.33;;;;;9.66;100.00;101606.44;5082505;27;45480;-73
2023/03/05 08:46:03;;;;;;;;;25.00;24.00;;;;;9.62;100.00;101591.81;5081921;27;45330;-75
2023/03/05 08:48:30;;;;;;;;;21.00;19.67;;;;;9.49;100.00;101588.66;5082374;27;45334;-75
2023/03/05 08:50:55;;;;;;;;;24.33;21.67;;;;;9.55;100.00;101594.19;5080404;28;45445;-76
2023/03/05 08:53:21;;;;;;;;;23.33;23.33;;;;;9.48;100.00;101585.16;5080071;27;45468;-75
2023/03/05 08:55:57;;;;;;;;;28.00;27.00;;;;;9.52;100.00;101580.41;5082370;27;46108;-74
2023/03/05 08:58:23;;;;;;;;;21.67;19.67;;;;;9.59;100.00;101589.44;5082251;27;45275;-74
2023/03/05 09:00:49;;;;;;;;;25.67;24.00;;;;;9.54;100.00;101581.91;5082077;27;45329;-74
2023/03/05 09:03:14;;;;;;;;;30.00;25.00;;;;;9.54;100.00;101575.75;5079774;27;45303;-73
2023/03/05 09:05:40;;;;;;;;;29.00;25.00;;;;;9.61;100.00;101582.19;5070565;28;45707;-74
2023/03/05 09:08:08;;;;;;;;;26.50;24.25;;;;;9.57;100.00;101578.97;5082027;27;45353;-74
2023/03/05 09:10:33;;;;;;;;;30.50;28.00;;;;;9.57;100.00;101578.97;5081068;28;45335;-74
2023/03/05 09:12:59;;;;;;;;;27.50;27.50;;;;;9.66;100.00;101589.69;5070417;28;45245;-73
2023/03/05 09:15:24;;;;;;;;;29.00;25.67;;;;;9.62;100.00;101581.19;5074745;28;47310;-74
2023/03/05 09:17:49;;;;;;;;;33.25;26.75;;;;;9.58;100.00;101571.84;5059492;28;46186;-75
2023/03/05 09:20:15;;;;;;;;;31.50;27.00;;;;;9.71;100.00;101582.13;5071308;28;45864;-76
2023/03/05 09:22:41;;;;;;;;;24.67;24.33;;;;;9.75;100.00;101580.03;5078878;27;45385;-75
2023/03/05 09:25:07;;;;;;;;;22.00;20.00;;;;;9.85;100.00;101586.09;5071550;27;50888;-75
2023/03/05 09:27:35;;;;;;;;;31.67;26.00;;;;;9.87;100.00;101581.47;5072815;28;45944;-76
2023/03/05 09:30:00;;;;;;;;;28.00;27.00;;;;;9.88;100.00;101574.34;5072532;28;45489;-75
2023/03/05 09:32:25;;;;;;;;;48.00;41.75;;;;;9.91;100.00;101569.56;5078860;28;45488;-75
2023/03/05 09:34:51;;;;;;;;;32.25;32.00;;;;;9.95;100.00;101573.59;5079146;27;50658;-74
2023/03/05 09:37:16;;;;;;;;;46.25;38.50;;;;;9.98;100.00;101578.63;5078136;27;45527;-75
2023/03/05 09:39:42;;;;;;;;;57.00;47.25;;;;;9.97;100.00;101576.94;5060106;28;45340;-75
2023/03/05 09:42:26;;;;;;;;;24.33;19.67;;;;;9.94;100.00;101579.88;5072981;27;47039;-75
2023/03/05 09:45:20;;;;;;;;;20.00;20.00;;;;;9.80;100.00;101552.03;5080775;27;46224;-76
2023/03/05 09:48:03;;;;;;;;;24.67;18.00;;;;;9.95;100.00;101570.94;5079706;28;45588;-75
2023/03/05 09:50:53;;;;;;;;;29.50;23.25;;;;;9.89;100.00;101555.63;5080937;27;45372;-74
2023/03/05 09:53:27;;;;;;;;;17.00;13.00;;;;;10.01;100.00;101555.38;5052874;28;46577;-75
2023/03/05 09:56:10;;;;;;;;;21.67;18.33;;;;;10.11;100.00;101550.84;5079715;27;46291;-75
2023/03/05 09:58:38;;;;;;;;;24.00;23.00;;;;;10.23;100.00;101546.13;5079175;27;45354;-76
2023/03/05 10:01:15;;;;;;;;;27.75;24.50;;;;;10.30;100.00;101538.41;5079644;28;45363;-76
2023/03/05 10:04:03;;;;;;;;;31.50;28.75;;;;;10.45;100.00;101538.69;5078911;28;45389;-76
2023/03/05 10:06:33;;;;;;;;;27.75;26.25;;;;;10.51;100.00;101531.97;5078568;28;45985;-75
2023/03/05 10:09:10;;;;;;;;;20.00;18.67;;;;;10.47;100.00;101526.94;5075521;27;45839;-75
2023/03/05 10:11:57;;;;;;;;;18.33;14.67;;;;;10.46;100.00;101524.44;5077854;27;45695;-75
2023/03/05 10:14:23;;;;;;;;;16.00;12.67;;;;;10.46;100.00;101519.13;5077561;28;47395;-75
2023/03/05 10:17:11;;;;;;;;;16.33;14.33;;;;;10.41;100.00;101508.94;5078046;28;47063;-77
2023/03/05 10:20:21;;;;;;;;;21.00;18.33;;;;;10.55;100.00;101520.03;5079882;28;45257;-75
2023/03/05 10:23:24;;;;;;;;;21.67;19.00;;;;;10.54;100.00;101513.03;5036389;28;45597;-75
2023/03/05 10:26:19;;;;;;;;;18.33;17.00;;;;;10.53;100.00;101506.06;5036513;28;45476;-75
2023/03/05 10:29:11;;;;;;;;;23.33;21.33;;;;;10.59;100.00;101502.75;5071348;27;46391;-75
2023/03/05 10:31:51;;;;;;;;;11.00;10.67;;;;;10.69;100.00;101506.16;5074507;28;45328;-75
2023/03/05 10:34:24;;;;;;;;;26.00;24.00;;;;;10.75;100.00;101509.19;5078840;27;45493;-75
2023/03/05 10:37:20;;;;;;;;;13.67;12.67;;;;;10.83;100.00;101506.56;5076289;28;46245;-75
2023/03/05 10:39:55;;;;;;;;;11.00;11.00;;;;;10.87;100.00;101497.31;5078146;27;46311;-76
2023/03/05 10:42:32;;;;;;;;;14.33;11.33;;;;;10.87;100.00;101492.00;5079798;27;45666;-76
2023/03/05 10:45:00;;;;;;;;;11.00;9.33;;;;;10.89;100.00;101495.31;5068123;28;45414;-75
2023/03/05 10:47:43;;;;;;;;;11.33;10.00;;;;;10.92;100.00;101491.53;5073566;28;46072;-77
2023/03/05 10:50:22;;;;;;;;;7.00;6.67;;;;;10.95;99.49;101484.03;5078249;28;48304;-76
2023/03/05 10:52:57;;;;;;;;;12.33;10.00;;;;;11.04;99.13;101490.22;5062688;28;45665;-75
2023/03/05 10:55:22;;;;;;;;;8.33;8.33;;;;;11.08;97.76;101477.47;5073818;27;45385;-77
2023/03/05 10:57:48;;;;;;;;;12.00;10.00;;;;;11.09;95.41;101481.78;5085422;27;46225;-78
2023/03/05 11:00:16;;;;;;;;;10.00;8.33;;;;;11.14;95.27;101476.00;5072097;28;46222;-76
2023/03/05 11:03:06;;;;;;;;;10.33;6.00;;;;;11.13;94.12;101472.47;5069727;27;45378;-75
2023/03/05 11:05:38;;;;;;;;;6.00;5.00;;;;;11.22;92.59;101476.84;5075892;28;45418;-74
2023/03/05 11:08:32;;;;;;;;;6.33;6.00;;;;;11.28;92.06;101479.88;5078231;27;45411;-76
2023/03/05 11:11:07;;;;;;;;;6.00;6.00;;;;;11.31;90.15;101466.25;5067283;28;45382;-74
2023/03/05 11:13:32;;;;;;;;;5.67;5.67;;;;;11.36;89.53;101470.09;5079086;28;45799;-74